createdAt,value
2017-08-16T09:31:03.615Z,23.72
2017-08-16T09:31:04.131Z,23.75
2017-08-16T09:31:04.722Z,23.76
2017-08-16T09:31:05.325Z,23.71
2017-08-16T09:31:05.925Z,23.75
2017-08-16T09:31:06.524Z,23.71
2017-08-16T09:31:07.122Z,23.70
2017-08-16T09:31:07.722Z,23.76
2017-08-16T09:31:08.328Z,23.71
2017-08-16T09:31:08.928Z,23.72
2017-08-16T09:31:09.528Z,23.77
2017-08-16T09:31:10.128Z,23.71
2017-08-16T09:31:10.727Z,23.80
2017-08-16T09:31:11.326Z,23.72
2017-08-16T09:33:13.629Z,23.52
2017-08-16T09:33:14.222Z,23.52
2017-08-16T09:33:14.817Z,23.53
2017-08-16T09:33:15.417Z,23.53
2017-08-16T09:33:16.018Z,23.57
2017-08-16T09:33:16.618Z,23.50
2017-08-16T09:33:17.218Z,23.50
2017-08-16T09:33:17.818Z,23.47
2017-08-16T09:33:18.421Z,23.45
2017-08-16T09:33:19.019Z,23.45
2017-08-16T09:33:19.620Z,23.50
2017-08-16T09:33:20.220Z,23.49
2017-08-16T09:34:14.268Z,23.31
2017-08-16T09:34:14.834Z,23.31
2017-08-16T09:34:15.435Z,23.34
2017-08-16T09:34:16.040Z,23.31
2017-08-16T09:34:16.634Z,23.27
2017-08-16T09:34:17.234Z,23.34
2017-08-16T09:34:17.834Z,23.29
2017-08-16T09:34:18.438Z,23.32
2017-08-16T09:35:11.913Z,23.20
2017-08-16T09:35:12.486Z,23.17
2017-08-16T09:35:13.083Z,23.11
2017-08-16T09:35:13.684Z,23.14
2017-08-16T09:35:14.282Z,23.17
2017-08-16T09:35:14.882Z,23.20
2017-08-16T09:35:15.485Z,23.17
2017-08-16T09:35:16.085Z,23.19
2017-08-16T09:36:09.561Z,22.89
2017-08-16T09:36:10.136Z,22.84
2017-08-16T09:36:10.741Z,22.86
2017-08-16T09:36:11.343Z,22.87
2017-08-16T09:36:11.937Z,22.80
2017-08-16T09:36:12.537Z,22.84
2017-08-16T09:36:13.135Z,22.84
2017-08-16T09:36:13.738Z,22.86
2017-08-16T09:37:07.195Z,22.52
2017-08-16T09:37:07.796Z,22.50
2017-08-16T09:37:08.391Z,22.46
2017-08-16T09:37:08.992Z,22.47
2017-08-16T09:37:09.591Z,22.49
2017-08-16T09:37:10.191Z,22.46
2017-08-16T09:37:10.790Z,22.47
2017-08-16T09:37:11.390Z,22.54
2017-08-16T09:38:05.870Z,22.32
2017-08-16T09:38:06.468Z,22.34
2017-08-16T09:38:07.063Z,22.37
2017-08-16T09:38:07.667Z,22.31
2017-08-16T09:38:08.266Z,22.35
2017-08-16T09:38:08.864Z,22.32
2017-08-16T09:38:09.467Z,22.31
2017-08-16T09:38:10.066Z,22.35
2017-08-16T09:39:16.250Z,22.10
2017-08-16T09:39:16.817Z,22.12
2017-08-16T09:39:17.415Z,22.10
2017-08-16T09:39:18.016Z,22.09
2017-08-16T09:39:18.615Z,22.07
2017-08-16T09:39:19.215Z,22.13
2017-08-16T09:39:19.821Z,22.07
2017-08-16T09:39:20.419Z,22.10
2017-08-16T09:40:13.870Z,21.90
2017-08-16T09:40:14.466Z,21.99
2017-08-16T09:40:15.065Z,21.98
2017-08-16T09:40:15.667Z,21.92
2017-08-16T09:40:16.273Z,21.97
2017-08-16T09:40:16.870Z,21.99
2017-08-16T09:40:17.476Z,21.97
2017-08-16T09:40:18.074Z,21.95
2017-08-16T09:41:11.526Z,21.85
2017-08-16T09:41:12.125Z,21.79
2017-08-16T09:41:12.724Z,21.83
2017-08-16T09:41:13.327Z,21.92
2017-08-16T09:41:13.943Z,21.79
2017-08-16T09:41:14.525Z,21.91
2017-08-16T09:41:15.124Z,21.91
2017-08-16T09:41:15.723Z,21.82
2017-08-16T09:42:10.200Z,21.79
2017-08-16T09:42:10.797Z,21.76
2017-08-16T09:42:11.395Z,21.78
2017-08-16T09:42:11.995Z,21.82
2017-08-16T09:42:12.599Z,21.79
2017-08-16T09:42:13.198Z,21.79
2017-08-16T09:42:13.800Z,21.76
2017-08-16T09:42:14.391Z,21.72
2017-08-16T09:43:07.954Z,21.78
2017-08-16T09:43:08.554Z,21.75
2017-08-16T09:43:09.151Z,21.71
2017-08-16T09:43:09.752Z,21.79
2017-08-16T09:43:10.353Z,21.81
2017-08-16T09:43:10.950Z,21.76
2017-08-16T09:43:11.552Z,21.74
2017-08-16T09:43:12.148Z,21.78
2017-08-16T09:44:06.629Z,21.76
2017-08-16T09:44:07.225Z,21.82
2017-08-16T09:44:07.825Z,21.81
2017-08-16T09:44:08.425Z,21.78
2017-08-16T09:44:09.021Z,21.71
2017-08-16T09:44:09.626Z,21.78
2017-08-16T09:44:10.227Z,21.76
2017-08-16T09:44:10.829Z,21.79
2017-08-16T09:45:05.359Z,21.81
2017-08-16T09:45:05.905Z,21.88
2017-08-16T09:45:06.497Z,21.94
2017-08-16T09:45:07.100Z,21.94
2017-08-16T09:45:07.697Z,21.82
2017-08-16T09:45:08.296Z,21.79
2017-08-16T09:45:08.902Z,21.83
2017-08-16T09:45:09.497Z,21.94
2017-08-16T09:46:03.987Z,22.01
2017-08-16T09:46:04.581Z,21.97
2017-08-16T09:46:05.177Z,21.99
2017-08-16T09:46:05.780Z,21.95
2017-08-16T09:46:06.376Z,21.99
2017-08-16T09:46:06.977Z,21.97
2017-08-16T09:46:07.580Z,21.99
2017-08-16T09:46:08.176Z,21.97
2017-08-16T09:47:01.736Z,22.09
2017-08-16T09:47:02.329Z,22.12
2017-08-16T09:47:02.929Z,22.10
2017-08-16T09:47:03.533Z,22.07
2017-08-16T09:47:04.130Z,22.13
2017-08-16T09:47:04.728Z,22.13
2017-08-16T09:47:05.333Z,22.14
2017-08-16T09:47:05.932Z,22.10
2017-08-16T09:47:59.486Z,22.19
2017-08-16T09:48:00.085Z,22.31
2017-08-16T09:48:00.685Z,22.32
2017-08-16T09:48:01.286Z,22.20
2017-08-16T09:48:01.885Z,22.17
2017-08-16T09:48:02.485Z,22.25
2017-08-16T09:48:03.086Z,22.27
2017-08-16T09:48:03.691Z,22.27
2017-08-16T09:48:58.163Z,22.31
2017-08-16T09:48:58.765Z,22.32
2017-08-16T09:48:59.364Z,22.34
2017-08-16T09:48:59.985Z,22.31
2017-08-16T09:49:00.559Z,22.37
2017-08-16T09:49:01.157Z,22.35
2017-08-16T09:49:01.759Z,22.32
2017-08-16T09:49:02.361Z,22.41
2017-08-16T09:49:55.916Z,22.46
2017-08-16T09:49:56.512Z,22.49
2017-08-16T09:49:57.113Z,22.41
2017-08-16T09:49:57.720Z,22.38
2017-08-16T09:49:58.341Z,22.52
2017-08-16T09:49:58.919Z,22.49
2017-08-16T09:49:59.519Z,22.43
2017-08-16T09:50:00.120Z,22.50
2017-08-16T09:50:53.606Z,22.64
2017-08-16T09:50:54.170Z,22.64
2017-08-16T09:50:54.772Z,22.59
2017-08-16T09:50:55.371Z,22.60
2017-08-16T09:50:55.967Z,22.64
2017-08-16T09:50:56.570Z,22.57
2017-08-16T09:50:57.171Z,22.57
2017-08-16T09:50:57.766Z,22.64
2017-08-16T09:51:52.254Z,22.53
2017-08-16T09:51:52.846Z,22.62
2017-08-16T09:51:53.444Z,22.57
2017-08-16T09:51:54.041Z,22.59
2017-08-16T09:51:54.638Z,22.65
2017-08-16T09:51:55.238Z,22.57
2017-08-16T09:51:55.838Z,22.59
2017-08-16T09:51:56.438Z,22.64
2017-08-16T09:52:50.922Z,22.82
2017-08-16T09:52:51.525Z,22.80
2017-08-16T09:52:52.122Z,22.82
2017-08-16T09:52:52.719Z,22.83
2017-08-16T09:52:53.317Z,22.83
2017-08-16T09:52:53.917Z,22.83
2017-08-16T09:52:54.520Z,22.83
2017-08-16T09:52:55.114Z,22.82
2017-08-16T09:53:49.593Z,22.86
2017-08-16T09:53:50.201Z,22.89
2017-08-16T09:53:50.792Z,22.83
2017-08-16T09:53:51.393Z,22.89
2017-08-16T09:53:51.995Z,22.89
2017-08-16T09:53:52.593Z,22.80
2017-08-16T09:53:53.190Z,22.93
2017-08-16T09:53:53.797Z,22.94
2017-08-16T09:54:48.274Z,23.15
2017-08-16T09:54:48.872Z,23.20
2017-08-16T09:54:49.469Z,23.20
2017-08-16T09:54:50.069Z,23.08
2017-08-16T09:54:50.668Z,23.19
2017-08-16T09:54:51.267Z,23.20
2017-08-16T09:54:51.865Z,23.11
2017-08-16T09:54:52.469Z,23.19
2017-08-16T09:55:45.925Z,23.26
2017-08-16T09:55:46.519Z,23.22
2017-08-16T09:55:47.127Z,23.26
2017-08-16T09:55:47.722Z,23.29
2017-08-16T09:55:48.324Z,23.23
2017-08-16T09:55:48.924Z,23.29
2017-08-16T09:55:49.522Z,23.31
2017-08-16T09:55:50.121Z,23.27
2017-08-16T09:56:44.623Z,23.46
2017-08-16T09:56:45.195Z,23.43
2017-08-16T09:56:45.800Z,23.42
2017-08-16T09:56:46.396Z,23.43
2017-08-16T09:56:46.999Z,23.42
2017-08-16T09:56:47.593Z,23.39
2017-08-16T09:56:48.194Z,23.35
2017-08-16T09:56:48.800Z,23.38
2017-08-16T09:57:42.253Z,23.39
2017-08-16T09:57:42.848Z,23.35
2017-08-16T09:57:43.450Z,23.43
2017-08-16T09:57:44.051Z,23.38
2017-08-16T09:57:44.651Z,23.39
2017-08-16T09:57:45.254Z,23.40
2017-08-16T09:57:45.852Z,23.42
2017-08-16T09:57:46.453Z,23.45
2017-08-16T09:58:40.932Z,23.47
2017-08-16T09:58:41.530Z,23.42
2017-08-16T09:58:42.127Z,23.47
2017-08-16T09:58:42.727Z,23.49
2017-08-16T09:58:43.328Z,23.38
2017-08-16T09:58:43.928Z,23.45
2017-08-16T09:58:44.523Z,23.43
2017-08-16T09:58:45.120Z,23.47
2017-08-16T09:59:39.608Z,23.52
2017-08-16T09:59:40.202Z,23.47
2017-08-16T09:59:40.805Z,23.42
2017-08-16T09:59:41.405Z,23.46
2017-08-16T09:59:42.000Z,23.43
2017-08-16T09:59:42.601Z,23.46
2017-08-16T09:59:43.197Z,23.43
2017-08-16T09:59:43.797Z,23.43
2017-08-16T10:00:37.255Z,23.23
2017-08-16T10:00:37.853Z,23.32
2017-08-16T10:00:38.455Z,23.26
2017-08-16T10:00:39.053Z,23.34
2017-08-16T10:00:39.652Z,23.31
2017-08-16T10:00:40.253Z,23.34
2017-08-16T10:00:40.849Z,23.31
2017-08-16T10:00:41.449Z,23.29
2017-08-16T10:01:35.954Z,23.20
2017-08-16T10:01:36.529Z,23.17
2017-08-16T10:01:37.127Z,23.23
2017-08-16T10:01:37.727Z,23.23
2017-08-16T10:01:38.327Z,23.26
2017-08-16T10:01:38.929Z,23.23
2017-08-16T10:01:39.528Z,23.20
2017-08-16T10:01:40.131Z,23.27
2017-08-16T10:02:34.606Z,23.15
2017-08-16T10:02:35.206Z,23.12
2017-08-16T10:02:35.805Z,23.17
2017-08-16T10:02:36.406Z,23.19
2017-08-16T10:02:37.006Z,23.20
2017-08-16T10:02:37.602Z,23.19
2017-08-16T10:02:38.200Z,23.17
2017-08-16T10:02:38.799Z,23.11
2017-08-16T10:03:33.283Z,23.05
2017-08-16T10:03:33.882Z,23.07
2017-08-16T10:03:34.480Z,23.07
2017-08-16T10:03:35.079Z,23.05
2017-08-16T10:03:35.682Z,23.09
2017-08-16T10:03:36.283Z,23.11
2017-08-16T10:03:36.882Z,23.05
2017-08-16T10:03:37.475Z,23.05
2017-08-16T10:04:31.039Z,22.94
2017-08-16T10:04:31.630Z,22.96
2017-08-16T10:04:32.234Z,22.97
2017-08-16T10:04:32.834Z,22.99
2017-08-16T10:04:33.434Z,22.99
2017-08-16T10:04:34.035Z,22.93
2017-08-16T10:04:34.634Z,22.97
2017-08-16T10:04:35.240Z,22.90
2017-08-16T10:05:28.688Z,22.89
2017-08-16T10:05:29.286Z,22.92
2017-08-16T10:05:29.887Z,22.87
2017-08-16T10:05:30.486Z,22.92
2017-08-16T10:05:31.088Z,22.93
2017-08-16T10:05:31.686Z,22.93
2017-08-16T10:05:32.290Z,22.94
2017-08-16T10:05:32.886Z,22.94
2017-08-16T10:06:27.392Z,22.64
2017-08-16T10:06:27.962Z,22.67
2017-08-16T10:06:28.559Z,22.67
2017-08-16T10:06:29.160Z,22.67
2017-08-16T10:06:29.762Z,22.71
2017-08-16T10:06:30.364Z,22.65
2017-08-16T10:06:30.960Z,22.67
2017-08-16T10:06:31.566Z,22.71
2017-08-16T10:07:26.052Z,22.87
2017-08-16T10:07:26.640Z,22.84
2017-08-16T10:07:27.241Z,22.83
2017-08-16T10:07:27.839Z,22.87
2017-08-16T10:07:28.439Z,22.84
2017-08-16T10:07:29.039Z,22.83
2017-08-16T10:07:29.645Z,22.90
2017-08-16T10:07:30.241Z,22.86
2017-08-16T10:08:23.693Z,22.93
2017-08-16T10:08:24.291Z,23.02
2017-08-16T10:08:24.903Z,22.97
2017-08-16T10:08:26.270Z,22.96
2017-08-16T10:08:26.782Z,23.07
2017-08-16T10:08:27.379Z,23.02
2017-08-16T10:08:27.978Z,22.96
2017-08-16T10:09:21.446Z,23.17
2017-08-16T10:09:22.043Z,23.14
2017-08-16T10:09:22.641Z,23.11
2017-08-16T10:09:23.241Z,23.15
2017-08-16T10:09:23.843Z,23.11
2017-08-16T10:09:24.442Z,23.19
2017-08-16T10:09:25.041Z,23.23
2017-08-16T10:09:25.648Z,23.22
2017-08-16T10:10:19.204Z,23.53
2017-08-16T10:10:19.797Z,23.42
2017-08-16T10:10:20.403Z,23.43
2017-08-16T10:10:21.001Z,23.47
2017-08-16T10:10:21.598Z,23.46
2017-08-16T10:10:22.194Z,23.52
2017-08-16T10:10:22.794Z,23.45
2017-08-16T10:10:23.397Z,23.47
2017-08-16T10:11:16.955Z,23.71
2017-08-16T10:11:17.556Z,23.65
2017-08-16T10:11:18.154Z,23.61
2017-08-16T10:11:18.756Z,23.65
2017-08-16T10:11:19.354Z,23.72
2017-08-16T10:11:19.960Z,23.65
2017-08-16T10:11:20.550Z,23.62
2017-08-16T10:11:21.156Z,23.72
2017-08-16T10:12:14.632Z,23.90
2017-08-16T10:12:15.203Z,23.94
2017-08-16T10:12:15.807Z,24.00
2017-08-16T10:12:16.402Z,23.92
2017-08-16T10:12:16.999Z,23.90
2017-08-16T10:12:17.602Z,23.90
2017-08-16T10:12:18.204Z,23.94
2017-08-16T10:12:18.802Z,23.92
2017-08-16T10:13:13.280Z,24.12
2017-08-16T10:13:13.878Z,24.08
2017-08-16T10:13:14.481Z,24.04
2017-08-16T10:13:15.078Z,24.02
2017-08-16T10:13:15.676Z,24.04
2017-08-16T10:13:16.276Z,24.04
2017-08-16T10:13:16.878Z,24.07
2017-08-16T10:13:17.479Z,24.14
2017-08-16T10:14:11.033Z,24.17
2017-08-16T10:14:11.628Z,24.23
2017-08-16T10:14:12.237Z,24.22
2017-08-16T10:14:12.842Z,24.20
2017-08-16T10:14:13.436Z,24.23
2017-08-16T10:14:14.036Z,24.26
2017-08-16T10:14:14.632Z,24.26
2017-08-16T10:14:15.238Z,24.24
2017-08-16T10:15:08.786Z,24.24
2017-08-16T10:15:09.388Z,24.12
2017-08-16T10:15:09.991Z,24.20
2017-08-16T10:15:10.587Z,24.26
2017-08-16T10:15:11.187Z,24.20
2017-08-16T10:15:11.785Z,24.16
2017-08-16T10:15:12.385Z,24.20
2017-08-16T10:15:12.983Z,24.22
2017-08-16T10:16:07.473Z,24.32
2017-08-16T10:16:08.059Z,24.31
2017-08-16T10:16:08.660Z,24.31
2017-08-16T10:16:09.261Z,24.37
2017-08-16T10:16:09.859Z,24.34
2017-08-16T10:16:10.462Z,24.41
2017-08-16T10:16:11.063Z,24.39
2017-08-16T10:16:11.660Z,24.38
2017-08-16T10:17:06.145Z,24.37
2017-08-16T10:17:06.738Z,24.38
2017-08-16T10:17:07.340Z,24.38
2017-08-16T10:17:07.936Z,24.39
2017-08-16T10:17:08.540Z,24.45
2017-08-16T10:17:09.137Z,24.38
2017-08-16T10:17:09.733Z,24.37
2017-08-16T10:17:10.337Z,24.38
2017-08-16T10:18:04.838Z,24.10
2017-08-16T10:18:05.409Z,24.23
2017-08-16T10:18:06.009Z,24.22
2017-08-16T10:18:06.610Z,24.14
2017-08-16T10:18:07.212Z,24.22
2017-08-16T10:18:07.816Z,24.16
2017-08-16T10:18:08.413Z,24.22
2017-08-16T10:18:09.013Z,24.27
2017-08-16T10:19:02.568Z,23.90
2017-08-16T10:19:03.165Z,23.97
2017-08-16T10:19:03.770Z,23.90
2017-08-16T10:19:04.370Z,23.90
2017-08-16T10:19:04.973Z,23.97
2017-08-16T10:19:05.570Z,23.92
2017-08-16T10:19:06.173Z,23.97
2017-08-16T10:19:06.773Z,23.94
2017-08-16T10:20:00.323Z,23.64
2017-08-16T10:20:00.920Z,23.68
2017-08-16T10:20:01.518Z,23.58
2017-08-16T10:20:02.118Z,23.77
2017-08-16T10:20:02.726Z,23.62
2017-08-16T10:20:03.323Z,23.72
2017-08-16T10:20:03.921Z,23.61
2017-08-16T10:20:04.524Z,23.60
2017-08-16T10:20:58.080Z,23.55
2017-08-16T10:20:58.681Z,23.53
2017-08-16T10:20:59.276Z,23.60
2017-08-16T10:20:59.873Z,23.58
2017-08-16T10:21:00.476Z,23.61
2017-08-16T10:21:01.079Z,23.61
2017-08-16T10:21:01.682Z,23.57
2017-08-16T10:21:02.282Z,23.53
2017-08-16T10:21:55.832Z,23.67
2017-08-16T10:21:56.428Z,23.60
2017-08-16T10:21:57.027Z,23.67
2017-08-16T10:21:57.629Z,23.76
2017-08-16T10:21:58.226Z,23.62
2017-08-16T10:21:58.825Z,23.57
2017-08-16T10:21:59.433Z,23.68
2017-08-16T10:22:00.030Z,23.60
2017-08-16T10:22:54.543Z,23.82
2017-08-16T10:22:55.115Z,23.77
2017-08-16T10:22:55.707Z,23.86
2017-08-16T10:22:56.308Z,23.80
2017-08-16T10:22:56.905Z,23.76
2017-08-16T10:22:57.505Z,23.82
2017-08-16T10:22:58.103Z,23.82
2017-08-16T10:22:58.700Z,23.80
2017-08-16T10:23:53.700Z,23.85
2017-08-16T10:23:54.295Z,23.98
2017-08-16T10:23:54.893Z,23.92
2017-08-16T10:23:55.496Z,23.95
2017-08-16T10:23:56.093Z,23.94
2017-08-16T10:23:56.696Z,23.95
2017-08-16T10:23:57.295Z,23.94
2017-08-16T10:24:50.836Z,24.02
2017-08-16T10:24:51.434Z,24.02
2017-08-16T10:24:52.034Z,24.02
2017-08-16T10:24:52.630Z,24.02
2017-08-16T10:24:53.229Z,23.97
2017-08-16T10:24:53.838Z,24.02
2017-08-16T10:24:54.436Z,24.05
2017-08-16T10:24:55.037Z,24.02
2017-08-16T10:25:48.587Z,24.14
2017-08-16T10:25:49.187Z,24.17
2017-08-16T10:25:49.783Z,24.08
2017-08-16T10:25:50.389Z,24.14
2017-08-16T10:25:50.984Z,24.13
2017-08-16T10:25:51.587Z,24.20
2017-08-16T10:25:52.188Z,24.13
2017-08-16T10:25:52.782Z,24.13
2017-08-16T10:26:46.242Z,24.24
2017-08-16T10:26:46.841Z,24.29
2017-08-16T10:26:47.441Z,24.26
2017-08-16T10:26:48.043Z,24.29
2017-08-16T10:26:48.639Z,24.32
2017-08-16T10:26:49.235Z,24.29
2017-08-16T10:26:49.838Z,24.31
2017-08-16T10:26:50.435Z,24.27
2017-08-16T10:27:44.917Z,24.14
2017-08-16T10:27:45.514Z,24.12
2017-08-16T10:27:46.113Z,24.08
2017-08-16T10:27:46.710Z,24.17
2017-08-16T10:27:47.313Z,24.22
2017-08-16T10:27:47.915Z,24.14
2017-08-16T10:27:48.514Z,24.17
2017-08-16T10:27:49.117Z,24.17
2017-08-16T10:28:43.618Z,23.95
2017-08-16T10:28:44.190Z,24.01
2017-08-16T10:28:44.793Z,23.90
2017-08-16T10:28:45.394Z,23.92
2017-08-16T10:28:45.989Z,23.92
2017-08-16T10:28:46.588Z,23.92
2017-08-16T10:28:47.188Z,23.92
2017-08-16T10:28:47.790Z,23.95
2017-08-16T10:29:41.248Z,23.98
2017-08-16T10:29:41.842Z,23.98
2017-08-16T10:29:42.447Z,23.95
2017-08-16T10:29:43.042Z,23.97
2017-08-16T10:29:43.640Z,23.97
2017-08-16T10:29:44.237Z,23.90
2017-08-16T10:29:44.842Z,23.90
2017-08-16T10:29:45.441Z,23.90
2017-08-16T10:30:39.923Z,23.89
2017-08-16T10:30:40.518Z,23.82
2017-08-16T10:30:41.117Z,23.92
2017-08-16T10:30:41.720Z,23.82
2017-08-16T10:30:42.316Z,23.87
2017-08-16T10:30:42.916Z,23.86
2017-08-16T10:30:43.513Z,23.85
2017-08-16T10:30:44.119Z,23.87
2017-08-16T10:31:38.599Z,23.75
2017-08-16T10:31:39.195Z,23.77
2017-08-16T10:31:39.792Z,23.70
2017-08-16T10:31:40.393Z,23.72
2017-08-16T10:31:40.991Z,23.70
2017-08-16T10:31:41.592Z,23.70
2017-08-16T10:31:42.196Z,23.76
2017-08-16T10:31:42.793Z,23.76
2017-08-16T10:32:36.360Z,23.75
2017-08-16T10:32:36.951Z,23.71
2017-08-16T10:32:37.557Z,23.60
2017-08-16T10:32:38.149Z,23.55
2017-08-16T10:32:38.750Z,23.60
2017-08-16T10:32:39.348Z,23.64
2017-08-16T10:32:39.946Z,23.75
2017-08-16T10:32:40.543Z,23.72
2017-08-16T10:33:35.060Z,23.80
2017-08-16T10:33:35.621Z,23.75
2017-08-16T10:33:36.229Z,23.70
2017-08-16T10:33:36.828Z,23.76
2017-08-16T10:33:37.421Z,23.85
2017-08-16T10:33:38.018Z,23.75
2017-08-16T10:33:38.618Z,23.80
2017-08-16T10:33:39.221Z,23.76
2017-08-16T10:34:45.376Z,23.79
2017-08-16T10:34:45.974Z,23.72
2017-08-16T10:34:46.572Z,23.72
2017-08-16T10:34:47.171Z,23.70
2017-08-16T10:34:47.771Z,23.79
2017-08-16T10:34:48.367Z,23.76
2017-08-16T10:34:48.971Z,23.85
2017-08-16T10:34:49.577Z,23.82
2017-08-16T10:35:43.031Z,23.80
2017-08-16T10:35:43.624Z,23.70
2017-08-16T10:35:44.225Z,23.70
2017-08-16T10:35:44.832Z,23.79
2017-08-16T10:35:45.426Z,23.72
2017-08-16T10:35:46.022Z,23.76
2017-08-16T10:35:46.622Z,23.80
2017-08-16T10:35:47.223Z,23.72
2017-08-16T10:36:40.679Z,23.62
2017-08-16T10:36:41.275Z,23.50
2017-08-16T10:36:41.874Z,23.50
2017-08-16T10:36:42.475Z,23.65
2017-08-16T10:36:43.076Z,23.60
2017-08-16T10:36:43.678Z,23.62
2017-08-16T10:36:44.276Z,23.58
2017-08-16T10:36:44.880Z,23.61
2017-08-16T10:37:39.352Z,23.55
2017-08-16T10:37:39.947Z,23.57
2017-08-16T10:37:40.555Z,23.57
2017-08-16T10:37:41.153Z,23.62
2017-08-16T10:37:41.749Z,23.57
2017-08-16T10:37:42.352Z,23.57
2017-08-16T10:37:42.952Z,23.55
2017-08-16T10:37:43.554Z,23.55
2017-08-16T10:38:38.062Z,23.67
2017-08-16T10:38:38.626Z,23.72
2017-08-16T10:38:39.224Z,23.68
2017-08-16T10:38:39.826Z,23.68
2017-08-16T10:38:40.422Z,23.70
2017-08-16T10:38:41.026Z,23.60
2017-08-16T10:38:41.626Z,23.61
2017-08-16T10:38:42.231Z,23.64
2017-08-16T10:39:36.705Z,23.79
2017-08-16T10:39:37.296Z,23.82
2017-08-16T10:39:37.898Z,23.83
2017-08-16T10:39:38.498Z,23.83
2017-08-16T10:39:39.102Z,23.80
2017-08-16T10:39:39.698Z,23.82
2017-08-16T10:39:40.356Z,23.86
2017-08-16T10:39:40.899Z,23.85
2017-08-16T10:40:35.384Z,23.83
2017-08-16T10:40:35.974Z,23.87
2017-08-16T10:40:36.576Z,23.83
2017-08-16T10:40:37.176Z,23.80
2017-08-16T10:40:37.773Z,23.82
2017-08-16T10:40:38.376Z,23.89
2017-08-16T10:40:38.975Z,23.86
2017-08-16T10:40:39.575Z,23.85
2017-08-16T10:41:34.058Z,23.76
2017-08-16T10:41:34.652Z,23.86
2017-08-16T10:41:35.256Z,23.82
2017-08-16T10:41:35.849Z,23.85
2017-08-16T10:41:36.451Z,23.77
2017-08-16T10:41:37.048Z,23.79
2017-08-16T10:41:37.652Z,23.82
2017-08-16T10:41:38.251Z,23.75
2017-08-16T10:42:31.709Z,23.92
2017-08-16T10:42:32.301Z,23.95
2017-08-16T10:42:32.901Z,23.87
2017-08-16T10:42:33.505Z,23.95
2017-08-16T10:42:34.109Z,23.90
2017-08-16T10:42:34.702Z,23.90
2017-08-16T10:42:35.304Z,23.87
2017-08-16T10:42:35.908Z,23.89
2017-08-16T10:43:29.460Z,24.10
2017-08-16T10:43:30.060Z,24.14
2017-08-16T10:43:30.657Z,24.13
2017-08-16T10:43:31.259Z,24.12
2017-08-16T10:43:31.856Z,24.10
2017-08-16T10:43:32.461Z,24.14
2017-08-16T10:43:33.062Z,24.17
2017-08-16T10:43:33.660Z,24.23
2017-08-16T10:44:27.251Z,24.38
2017-08-16T10:44:27.818Z,24.39
2017-08-16T10:44:28.414Z,24.39
2017-08-16T10:44:29.014Z,24.34
2017-08-16T10:44:29.618Z,24.37
2017-08-16T10:44:30.209Z,24.34
2017-08-16T10:44:30.812Z,24.37
2017-08-16T10:44:31.415Z,24.38
2017-08-16T10:45:24.974Z,24.60
2017-08-16T10:45:25.567Z,24.60
2017-08-16T10:45:26.168Z,24.57
2017-08-16T10:45:26.765Z,24.56
2017-08-16T10:45:27.365Z,24.63
2017-08-16T10:45:27.972Z,24.63
2017-08-16T10:45:28.573Z,24.59
2017-08-16T10:45:29.169Z,24.57
2017-08-16T10:46:22.739Z,24.76
2017-08-16T10:46:23.329Z,24.75
2017-08-16T10:46:23.923Z,24.75
2017-08-16T10:46:24.521Z,24.82
2017-08-16T10:46:25.130Z,24.83
2017-08-16T10:46:25.726Z,24.75
2017-08-16T10:46:26.322Z,24.76
2017-08-16T10:46:26.925Z,24.83
2017-08-16T10:47:20.480Z,24.73
2017-08-16T10:47:21.078Z,24.73
2017-08-16T10:47:21.680Z,24.77
2017-08-16T10:47:22.277Z,24.73
2017-08-16T10:47:22.873Z,24.75
2017-08-16T10:47:23.477Z,24.76
2017-08-16T10:47:24.085Z,24.73
2017-08-16T10:47:24.675Z,24.80
2017-08-16T10:48:25.623Z,24.64
2017-08-16T10:48:26.219Z,24.57
2017-08-16T10:48:26.819Z,24.71
2017-08-16T10:48:27.422Z,24.75
2017-08-16T10:48:28.023Z,24.69
2017-08-16T10:48:28.622Z,24.68
2017-08-16T10:48:29.218Z,24.67
2017-08-16T10:48:29.817Z,24.73
2017-08-16T10:48:30.418Z,24.67
2017-08-16T10:48:31.029Z,24.64
2017-08-16T10:48:31.614Z,24.67
2017-08-16T10:48:32.218Z,24.71
2017-08-16T10:49:26.325Z,24.60
2017-08-16T10:49:26.924Z,24.56
2017-08-16T10:49:27.535Z,24.71
2017-08-16T10:49:28.127Z,24.60
2017-08-16T10:49:28.728Z,24.71
2017-08-16T10:49:29.329Z,24.69
2017-08-16T10:49:29.926Z,24.71
2017-08-16T10:49:30.526Z,24.57
2017-08-16T10:50:24.118Z,24.45
2017-08-16T10:50:24.681Z,24.45
2017-08-16T10:50:25.280Z,24.44
2017-08-16T10:50:25.881Z,24.53
2017-08-16T10:50:26.480Z,24.50
2017-08-16T10:50:27.083Z,24.49
2017-08-16T10:50:27.738Z,24.45
2017-08-16T10:50:28.283Z,24.50
2017-08-16T10:51:22.754Z,24.34
2017-08-16T10:51:23.355Z,24.35
2017-08-16T10:51:23.955Z,24.32
2017-08-16T10:51:24.555Z,24.32
2017-08-16T10:51:25.154Z,24.38
2017-08-16T10:51:25.756Z,24.35
2017-08-16T10:51:26.361Z,24.39
2017-08-16T10:51:26.957Z,24.34
2017-08-16T10:52:20.412Z,24.42
2017-08-16T10:52:21.012Z,24.44
2017-08-16T10:52:21.608Z,24.44
2017-08-16T10:52:22.207Z,24.45
2017-08-16T10:52:22.811Z,24.49
2017-08-16T10:52:23.408Z,24.52
2017-08-16T10:52:24.007Z,24.44
2017-08-16T10:52:24.607Z,24.50
2017-08-16T10:53:18.168Z,24.26
2017-08-16T10:53:18.763Z,24.29
2017-08-16T10:53:19.362Z,24.27
2017-08-16T10:53:19.962Z,24.27
2017-08-16T10:53:20.559Z,24.26
2017-08-16T10:53:21.158Z,24.31
2017-08-16T10:53:21.759Z,24.29
2017-08-16T10:53:22.362Z,24.26
2017-08-16T10:54:16.841Z,24.10
2017-08-16T10:54:17.434Z,24.12
2017-08-16T10:54:18.036Z,24.20
2017-08-16T10:54:18.639Z,24.16
2017-08-16T10:54:19.257Z,24.22
2017-08-16T10:54:19.835Z,24.22
2017-08-16T10:54:20.451Z,24.16
2017-08-16T10:54:21.032Z,24.22
2017-08-16T10:55:14.496Z,23.89
2017-08-16T10:55:15.099Z,23.97
2017-08-16T10:55:15.692Z,23.92
2017-08-16T10:55:16.288Z,23.90
2017-08-16T10:55:16.889Z,23.85
2017-08-16T10:55:17.489Z,23.86
2017-08-16T10:55:18.090Z,23.87
2017-08-16T10:55:18.688Z,23.98
2017-08-16T10:56:13.194Z,23.76
2017-08-16T10:56:13.762Z,23.72
2017-08-16T10:56:14.362Z,23.85
2017-08-16T10:56:14.959Z,23.75
2017-08-16T10:56:15.562Z,23.80
2017-08-16T10:56:16.162Z,23.72
2017-08-16T10:56:16.763Z,23.82
2017-08-16T10:56:17.364Z,23.71
2017-08-16T10:57:10.823Z,23.77
2017-08-16T10:57:11.420Z,23.70
2017-08-16T10:57:12.018Z,23.67
2017-08-16T10:57:12.619Z,23.62
2017-08-16T10:57:13.222Z,23.67
2017-08-16T10:57:13.813Z,23.70
2017-08-16T10:57:14.416Z,23.72
2017-08-16T10:57:15.016Z,23.62
2017-08-16T10:58:09.491Z,23.67
2017-08-16T10:58:10.086Z,23.79
2017-08-16T10:58:10.692Z,23.70
2017-08-16T10:58:11.290Z,23.65
2017-08-16T10:58:11.888Z,23.65
2017-08-16T10:58:12.490Z,23.72
2017-08-16T10:58:13.093Z,23.75
2017-08-16T10:58:13.693Z,23.65
2017-08-16T10:59:07.146Z,23.83
2017-08-16T10:59:07.743Z,23.79
2017-08-16T10:59:08.344Z,23.79
2017-08-16T10:59:08.946Z,23.83
2017-08-16T10:59:09.542Z,23.80
2017-08-16T10:59:10.146Z,23.87
2017-08-16T10:59:10.747Z,23.76
2017-08-16T10:59:11.344Z,23.80
2017-08-16T11:00:05.822Z,23.94
2017-08-16T11:00:06.413Z,23.95
2017-08-16T11:00:07.014Z,23.92
2017-08-16T11:00:07.613Z,23.94
2017-08-16T11:00:08.213Z,23.95
2017-08-16T11:00:08.820Z,23.90
2017-08-16T11:00:09.423Z,23.92
2017-08-16T11:00:10.020Z,23.95
2017-08-16T11:01:08.521Z,23.94
2017-08-16T11:01:09.089Z,23.94
2017-08-16T11:01:09.689Z,23.94
2017-08-16T11:01:10.291Z,23.92
2017-08-16T11:01:10.888Z,23.95
2017-08-16T11:01:11.491Z,23.92
2017-08-16T11:01:12.090Z,23.92
2017-08-16T11:01:12.693Z,23.92
2017-08-16T11:01:13.287Z,23.95
2017-08-16T11:01:13.882Z,23.98
2017-08-16T11:01:14.484Z,23.92
2017-08-16T11:01:15.088Z,23.92
2017-08-16T11:01:15.686Z,23.90
2017-08-16T11:01:16.288Z,23.94
2017-08-16T11:01:16.885Z,23.90
2017-08-16T11:01:17.483Z,23.97
2017-08-16T16:27:29.804Z,26.44
2017-08-16T16:27:30.376Z,26.46
2017-08-16T16:27:30.974Z,26.42
2017-08-16T16:27:31.573Z,26.42
2017-08-16T16:27:32.178Z,26.42
2017-08-16T16:27:32.779Z,26.46
2017-08-16T16:27:33.372Z,26.44
2017-08-16T16:27:33.975Z,26.40
2017-08-16T16:28:27.432Z,26.25
2017-08-16T16:28:28.032Z,26.24
2017-08-16T16:28:28.632Z,26.20
2017-08-16T16:28:29.231Z,26.28
2017-08-16T16:28:29.825Z,26.27
2017-08-16T16:28:30.428Z,26.29
2017-08-16T16:28:31.029Z,26.25
2017-08-16T16:28:31.625Z,26.28
2017-08-16T16:29:25.182Z,26.09